sensor_id;sensor_type;location;lat;lon;timestamp;P1;durP1;ratioP1;P2;durP2;ratioP2
22916;SDS011;11624;53.250;7.456;2023-04-25T00:01:56;26.83;;;5.35;;
22916;SDS011;11624;53.250;7.456;2023-04-25T00:04:24;25.73;;;4.75;;
22916;SDS011;11624;53.250;7.456;2023-04-25T00:06:53;28.02;;;5.28;;
22916;SDS011;11624;53.250;7.456;2023-04-25T00:09:22;25.85;;;4.88;;
22916;SDS011;11624;53.250;7.456;2023-04-25T00:11:51;24.70;;;5.05;;
22916;SDS011;11624;53.250;7.456;2023-04-25T00:14:19;33.22;;;6.32;;
22916;SDS011;11624;53.250;7.456;2023-04-25T00:16:48;28.20;;;5.40;;
22916;SDS011;11624;53.250;7.456;2023-04-25T00:19:18;23.08;;;4.70;;
22916;SDS011;11624;53.250;7.456;2023-04-25T00:21:46;24.95;;;4.95;;
22916;SDS011;11624;53.250;7.456;2023-04-25T00:24:14;24.67;;;5.22;;
22916;SDS011;11624;53.250;7.456;2023-04-25T00:26:42;26.27;;;5.53;;
22916;SDS011;11624;53.250;7.456;2023-04-25T00:29:11;22.77;;;4.65;;
22916;SDS011;11624;53.250;7.456;2023-04-25T00:31:39;26.65;;;4.88;;
22916;SDS011;11624;53.250;7.456;2023-04-25T00:34:08;24.38;;;5.10;;
22916;SDS011;11624;53.250;7.456;2023-04-25T00:36:36;23.85;;;4.65;;
22916;SDS011;11624;53.250;7.456;2023-04-25T00:39:04;22.00;;;4.68;;
22916;SDS011;11624;53.250;7.456;2023-04-25T00:41:32;24.92;;;4.47;;
22916;SDS011;11624;53.250;7.456;2023-04-25T00:44:01;25.70;;;4.97;;
22916;SDS011;11624;53.250;7.456;2023-04-25T00:46:41;18.73;;;4.43;;
22916;SDS011;11624;53.250;7.456;2023-04-25T00:49:09;20.63;;;4.13;;
22916;SDS011;11624;53.250;7.456;2023-04-25T00:51:41;23.20;;;4.60;;
22916;SDS011;11624;53.250;7.456;2023-04-25T00:54:11;23.48;;;4.93;;
22916;SDS011;11624;53.250;7.456;2023-04-25T00:56:43;23.05;;;4.22;;
22916;SDS011;11624;53.250;7.456;2023-04-25T01:03:11;24.42;;;3.90;;
22916;SDS011;11624;53.250;7.456;2023-04-25T01:05:49;17.58;;;4.18;;
22916;SDS011;11624;53.250;7.456;2023-04-25T01:08:23;16.17;;;3.85;;
22916;SDS011;11624;53.250;7.456;2023-04-25T01:11:01;23.58;;;4.30;;
22916;SDS011;11624;53.250;7.456;2023-04-25T01:13:49;23.63;;;4.15;;
22916;SDS011;11624;53.250;7.456;2023-04-25T01:16:30;21.30;;;4.15;;
22916;SDS011;11624;53.250;7.456;2023-04-25T01:19:36;22.45;;;3.55;;
22916;SDS011;11624;53.250;7.456;2023-04-25T01:25:19;22.23;;;3.90;;
22916;SDS011;11624;53.250;7.456;2023-04-25T01:28:10;23.15;;;4.13;;
22916;SDS011;11624;53.250;7.456;2023-04-25T01:30:56;24.58;;;3.97;;
22916;SDS011;11624;53.250;7.456;2023-04-25T01:33:40;17.67;;;3.60;;
22916;SDS011;11624;53.250;7.456;2023-04-25T01:36:22;19.85;;;4.03;;
22916;SDS011;11624;53.250;7.456;2023-04-25T01:38:58;17.83;;;4.03;;
22916;SDS011;11624;53.250;7.456;2023-04-25T01:41:46;18.73;;;3.60;;
22916;SDS011;11624;53.250;7.456;2023-04-25T01:49:04;18.23;;;3.72;;
22916;SDS011;11624;53.250;7.456;2023-04-25T02:00:26;25.58;;;4.10;;
22916;SDS011;11624;53.250;7.456;2023-04-25T02:02:57;16.73;;;3.70;;
22916;SDS011;11624;53.250;7.456;2023-04-25T02:05:33;21.05;;;4.07;;
22916;SDS011;11624;53.250;7.456;2023-04-25T02:08:04;17.33;;;3.67;;
22916;SDS011;11624;53.250;7.456;2023-04-25T02:10:33;20.55;;;3.67;;
22916;SDS011;11624;53.250;7.456;2023-04-25T02:13:17;25.33;;;4.07;;
22916;SDS011;11624;53.250;7.456;2023-04-25T02:15:58;23.02;;;3.70;;
22916;SDS011;11624;53.250;7.456;2023-04-25T02:18:26;16.95;;;3.20;;
22916;SDS011;11624;53.250;7.456;2023-04-25T02:20:55;15.25;;;3.35;;
22916;SDS011;11624;53.250;7.456;2023-04-25T02:23:24;20.10;;;3.47;;
22916;SDS011;11624;53.250;7.456;2023-04-25T02:25:54;18.08;;;3.47;;
22916;SDS011;11624;53.250;7.456;2023-04-25T02:28:25;17.42;;;3.60;;
22916;SDS011;11624;53.250;7.456;2023-04-25T02:30:54;21.58;;;4.15;;
22916;SDS011;11624;53.250;7.456;2023-04-25T02:33:26;19.40;;;3.35;;
22916;SDS011;11624;53.250;7.456;2023-04-25T02:35:55;16.55;;;3.38;;
22916;SDS011;11624;53.250;7.456;2023-04-25T02:38:23;22.27;;;3.95;;
22916;SDS011;11624;53.250;7.456;2023-04-25T02:40:51;21.80;;;3.70;;
22916;SDS011;11624;53.250;7.456;2023-04-25T02:43:19;18.27;;;3.70;;
22916;SDS011;11624;53.250;7.456;2023-04-25T02:45:51;23.02;;;3.60;;
22916;SDS011;11624;53.250;7.456;2023-04-25T02:48:20;17.75;;;3.28;;
22916;SDS011;11624;53.250;7.456;2023-04-25T02:50:49;12.75;;;3.40;;
22916;SDS011;11624;53.250;7.456;2023-04-25T02:53:18;16.42;;;3.63;;
22916;SDS011;11624;53.250;7.456;2023-04-25T02:55:48;15.77;;;3.42;;
22916;SDS011;11624;53.250;7.456;2023-04-25T02:58:18;21.65;;;4.50;;
22916;SDS011;11624;53.250;7.456;2023-04-25T03:00:49;17.58;;;3.60;;
22916;SDS011;11624;53.250;7.456;2023-04-25T03:03:18;21.83;;;3.70;;
22916;SDS011;11624;53.250;7.456;2023-04-25T03:05:50;15.30;;;3.60;;
22916;SDS011;11624;53.250;7.456;2023-04-25T03:08:26;23.60;;;3.85;;
22916;SDS011;11624;53.250;7.456;2023-04-25T03:10:59;21.40;;;3.40;;
22916;SDS011;11624;53.250;7.456;2023-04-25T03:13:28;18.23;;;4.10;;
22916;SDS011;11624;53.250;7.456;2023-04-25T03:15:57;14.98;;;2.70;;
22916;SDS011;11624;53.250;7.456;2023-04-25T03:18:25;14.27;;;3.05;;
22916;SDS011;11624;53.250;7.456;2023-04-25T03:20:55;13.43;;;3.40;;
22916;SDS011;11624;53.250;7.456;2023-04-25T03:23:23;20.83;;;3.50;;
22916;SDS011;11624;53.250;7.456;2023-04-25T03:25:52;23.40;;;3.25;;
22916;SDS011;11624;53.250;7.456;2023-04-25T03:28:20;21.25;;;3.25;;
22916;SDS011;11624;53.250;7.456;2023-04-25T03:30:49;20.05;;;3.40;;
22916;SDS011;11624;53.250;7.456;2023-04-25T03:33:17;19.02;;;3.63;;
22916;SDS011;11624;53.250;7.456;2023-04-25T03:35:46;24.52;;;3.90;;
22916;SDS011;11624;53.250;7.456;2023-04-25T03:38:15;17.90;;;3.90;;
22916;SDS011;11624;53.250;7.456;2023-04-25T03:40:44;15.73;;;3.40;;
22916;SDS011;11624;53.250;7.456;2023-04-25T03:43:22;18.17;;;3.58;;
22916;SDS011;11624;53.250;7.456;2023-04-25T03:45:56;17.23;;;3.45;;
22916;SDS011;11624;53.250;7.456;2023-04-25T03:48:25;12.63;;;3.05;;
22916;SDS011;11624;53.250;7.456;2023-04-25T03:50:53;18.85;;;3.55;;
22916;SDS011;11624;53.250;7.456;2023-04-25T03:53:23;15.75;;;3.28;;
22916;SDS011;11624;53.250;7.456;2023-04-25T03:56:20;14.18;;;3.35;;
22916;SDS011;11624;53.250;7.456;2023-04-25T03:58:58;18.23;;;3.77;;
22916;SDS011;11624;53.250;7.456;2023-04-25T04:01:28;15.20;;;3.40;;
22916;SDS011;11624;53.250;7.456;2023-04-25T04:03:56;14.83;;;3.20;;
22916;SDS011;11624;53.250;7.456;2023-04-25T04:06:25;17.63;;;3.57;;
22916;SDS011;11624;53.250;7.456;2023-04-25T04:09:08;20.53;;;3.53;;
22916;SDS011;11624;53.250;7.456;2023-04-25T04:11:40;17.97;;;2.90;;
22916;SDS011;11624;53.250;7.456;2023-04-25T04:14:08;17.73;;;3.60;;
22916;SDS011;11624;53.250;7.456;2023-04-25T04:16:41;12.07;;;3.00;;
22916;SDS011;11624;53.250;7.456;2023-04-25T04:19:09;17.87;;;3.40;;
22916;SDS011;11624;53.250;7.456;2023-04-25T04:21:41;18.13;;;3.20;;
22916;SDS011;11624;53.250;7.456;2023-04-25T04:24:11;21.90;;;3.47;;
22916;SDS011;11624;53.250;7.456;2023-04-25T04:26:49;21.17;;;3.77;;
22916;SDS011;11624;53.250;7.456;2023-04-25T04:29:38;19.37;;;3.97;;
22916;SDS011;11624;53.250;7.456;2023-04-25T04:32:14;18.67;;;3.60;;
22916;SDS011;11624;53.250;7.456;2023-04-25T04:34:42;16.97;;;3.37;;
22916;SDS011;11624;53.250;7.456;2023-04-25T04:37:13;15.20;;;3.70;;
22916;SDS011;11624;53.250;7.456;2023-04-25T04:39:43;19.55;;;3.88;;
22916;SDS011;11624;53.250;7.456;2023-04-25T04:42:23;18.77;;;3.30;;
22916;SDS011;11624;53.250;7.456;2023-04-25T04:44:58;13.33;;;3.47;;
22916;SDS011;11624;53.250;7.456;2023-04-25T04:47:54;19.43;;;3.37;;
22916;SDS011;11624;53.250;7.456;2023-04-25T04:50:43;23.73;;;3.53;;
22916;SDS011;11624;53.250;7.456;2023-04-25T04:53:22;21.30;;;3.20;;
22916;SDS011;11624;53.250;7.456;2023-04-25T04:56:17;19.50;;;2.97;;
22916;SDS011;11624;53.250;7.456;2023-04-25T04:58:47;14.57;;;2.83;;
22916;SDS011;11624;53.250;7.456;2023-04-25T05:01:36;16.83;;;3.00;;
22916;SDS011;11624;53.250;7.456;2023-04-25T05:04:33;16.58;;;3.13;;
22916;SDS011;11624;53.250;7.456;2023-04-25T05:07:10;15.57;;;2.50;;
22916;SDS011;11624;53.250;7.456;2023-04-25T05:09:57;14.40;;;2.77;;
22916;SDS011;11624;53.250;7.456;2023-04-25T05:12:39;16.33;;;2.60;;
22916;SDS011;11624;53.250;7.456;2023-04-25T05:15:25;21.17;;;3.80;;
22916;SDS011;11624;53.250;7.456;2023-04-25T05:18:25;16.93;;;2.73;;
22916;SDS011;11624;53.250;7.456;2023-04-25T05:21:05;12.83;;;2.60;;
22916;SDS011;11624;53.250;7.456;2023-04-25T05:23:54;12.10;;;2.47;;
22916;SDS011;11624;53.250;7.456;2023-04-25T05:26:43;9.27;;;2.43;;
22916;SDS011;11624;53.250;7.456;2023-04-25T05:29:32;6.70;;;2.30;;
22916;SDS011;11624;53.250;7.456;2023-04-25T05:32:16;11.10;;;2.80;;
22916;SDS011;11624;53.250;7.456;2023-04-25T05:34:46;14.23;;;2.50;;
22916;SDS011;11624;53.250;7.456;2023-04-25T05:37:31;10.57;;;2.30;;
22916;SDS011;11624;53.250;7.456;2023-04-25T05:40:10;10.15;;;2.67;;
22916;SDS011;11624;53.250;7.456;2023-04-25T05:42:57;15.70;;;2.97;;
22916;SDS011;11624;53.250;7.456;2023-04-25T05:45:43;11.00;;;2.20;;
22916;SDS011;11624;53.250;7.456;2023-04-25T05:48:44;14.07;;;2.80;;
22916;SDS011;11624;53.250;7.456;2023-04-25T05:51:30;10.30;;;2.45;;
22916;SDS011;11624;53.250;7.456;2023-04-25T05:54:30;11.60;;;2.80;;
22916;SDS011;11624;53.250;7.456;2023-04-25T05:56:58;11.75;;;2.70;;
22916;SDS011;11624;53.250;7.456;2023-04-25T05:59:27;10.95;;;2.60;;
22916;SDS011;11624;53.250;7.456;2023-04-25T06:01:56;12.65;;;2.80;;
22916;SDS011;11624;53.250;7.456;2023-04-25T06:04:26;12.90;;;2.65;;
22916;SDS011;11624;53.250;7.456;2023-04-25T06:06:54;16.77;;;2.88;;
22916;SDS011;11624;53.250;7.456;2023-04-25T06:09:22;16.10;;;2.78;;
22916;SDS011;11624;53.250;7.456;2023-04-25T06:11:52;11.10;;;2.53;;
22916;SDS011;11624;53.250;7.456;2023-04-25T06:14:21;13.90;;;2.47;;
22916;SDS011;11624;53.250;7.456;2023-04-25T06:16:50;16.25;;;3.20;;
22916;SDS011;11624;53.250;7.456;2023-04-25T06:19:19;15.90;;;2.60;;
22916;SDS011;11624;53.250;7.456;2023-04-25T06:21:48;14.48;;;2.60;;
22916;SDS011;11624;53.250;7.456;2023-04-25T06:24:16;11.43;;;2.35;;
22916;SDS011;11624;53.250;7.456;2023-04-25T06:26:44;16.48;;;3.28;;
22916;SDS011;11624;53.250;7.456;2023-04-25T06:29:14;15.63;;;3.10;;
22916;SDS011;11624;53.250;7.456;2023-04-25T06:31:42;14.27;;;2.78;;
22916;SDS011;11624;53.250;7.456;2023-04-25T06:34:11;14.48;;;2.70;;
22916;SDS011;11624;53.250;7.456;2023-04-25T06:36:42;18.02;;;2.63;;
22916;SDS011;11624;53.250;7.456;2023-04-25T06:39:14;14.52;;;2.67;;
22916;SDS011;11624;53.250;7.456;2023-04-25T06:41:42;16.63;;;2.95;;
22916;SDS011;11624;53.250;7.456;2023-04-25T06:44:33;14.65;;;2.65;;
22916;SDS011;11624;53.250;7.456;2023-04-25T06:47:04;11.65;;;2.55;;
22916;SDS011;11624;53.250;7.456;2023-04-25T06:49:33;12.95;;;2.90;;
22916;SDS011;11624;53.250;7.456;2023-04-25T06:52:03;12.52;;;2.70;;
22916;SDS011;11624;53.250;7.456;2023-04-25T06:54:31;15.25;;;2.92;;
22916;SDS011;11624;53.250;7.456;2023-04-25T06:57:05;12.13;;;2.58;;
22916;SDS011;11624;53.250;7.456;2023-04-25T06:59:34;17.60;;;2.58;;
22916;SDS011;11624;53.250;7.456;2023-04-25T07:02:02;10.82;;;2.15;;
22916;SDS011;11624;53.250;7.456;2023-04-25T07:04:32;11.45;;;2.80;;
22916;SDS011;11624;53.250;7.456;2023-04-25T07:07:03;13.75;;;2.35;;
22916;SDS011;11624;53.250;7.456;2023-04-25T07:09:37;16.42;;;3.05;;
22916;SDS011;11624;53.250;7.456;2023-04-25T07:12:06;12.38;;;2.80;;
22916;SDS011;11624;53.250;7.456;2023-04-25T07:14:34;12.57;;;2.67;;
22916;SDS011;11624;53.250;7.456;2023-04-25T07:17:02;15.02;;;2.90;;
22916;SDS011;11624;53.250;7.456;2023-04-25T07:19:33;14.90;;;2.60;;
22916;SDS011;11624;53.250;7.456;2023-04-25T07:22:03;18.85;;;2.85;;
22916;SDS011;11624;53.250;7.456;2023-04-25T07:24:32;14.23;;;2.70;;
22916;SDS011;11624;53.250;7.456;2023-04-25T07:27:00;12.18;;;2.70;;
22916;SDS011;11624;53.250;7.456;2023-04-25T07:29:49;14.82;;;2.78;;
22916;SDS011;11624;53.250;7.456;2023-04-25T07:32:17;17.33;;;2.92;;
22916;SDS011;11624;53.250;7.456;2023-04-25T07:34:45;16.52;;;2.63;;
22916;SDS011;11624;53.250;7.456;2023-04-25T07:37:16;13.55;;;6.43;;
22916;SDS011;11624;53.250;7.456;2023-04-25T07:40:08;16.45;;;2.90;;
22916;SDS011;11624;53.250;7.456;2023-04-25T07:42:42;11.90;;;2.33;;
22916;SDS011;11624;53.250;7.456;2023-04-25T07:45:14;13.38;;;2.47;;
22916;SDS011;11624;53.250;7.456;2023-04-25T07:47:42;13.95;;;2.50;;
22916;SDS011;11624;53.250;7.456;2023-04-25T07:50:11;8.65;;;2.40;;
22916;SDS011;11624;53.250;7.456;2023-04-25T07:52:41;12.50;;;2.20;;
22916;SDS011;11624;53.250;7.456;2023-04-25T07:55:18;9.93;;;2.08;;
22916;SDS011;11624;53.250;7.456;2023-04-25T07:58:00;15.75;;;2.72;;
22916;SDS011;11624;53.250;7.456;2023-04-25T08:00:30;11.88;;;2.10;;
22916;SDS011;11624;53.250;7.456;2023-04-25T08:03:21;14.00;;;2.47;;
22916;SDS011;11624;53.250;7.456;2023-04-25T08:05:49;7.85;;;2.22;;
22916;SDS011;11624;53.250;7.456;2023-04-25T08:08:20;16.40;;;2.40;;
22916;SDS011;11624;53.250;7.456;2023-04-25T08:10:48;10.63;;;2.53;;
22916;SDS011;11624;53.250;7.456;2023-04-25T08:13:17;13.68;;;2.70;;
22916;SDS011;11624;53.250;7.456;2023-04-25T08:15:45;9.50;;;2.05;;
22916;SDS011;11624;53.250;7.456;2023-04-25T08:18:13;14.70;;;2.33;;
22916;SDS011;11624;53.250;7.456;2023-04-25T08:20:44;11.85;;;2.45;;
22916;SDS011;11624;53.250;7.456;2023-04-25T08:23:13;15.80;;;2.70;;
22916;SDS011;11624;53.250;7.456;2023-04-25T08:25:50;11.52;;;2.50;;
22916;SDS011;11624;53.250;7.456;2023-04-25T08:28:23;11.15;;;2.22;;
22916;SDS011;11624;53.250;7.456;2023-04-25T08:30:51;12.55;;;2.40;;
22916;SDS011;11624;53.250;7.456;2023-04-25T08:33:20;11.13;;;2.42;;
22916;SDS011;11624;53.250;7.456;2023-04-25T08:35:59;7.00;;;2.10;;
22916;SDS011;11624;53.250;7.456;2023-04-25T08:38:29;10.68;;;2.30;;
22916;SDS011;11624;53.250;7.456;2023-04-25T08:41:00;12.85;;;2.33;;
22916;SDS011;11624;53.250;7.456;2023-04-25T08:43:32;12.32;;;2.10;;
22916;SDS011;11624;53.250;7.456;2023-04-25T08:46:02;12.30;;;2.55;;
22916;SDS011;11624;53.250;7.456;2023-04-25T08:48:40;8.43;;;2.20;;
22916;SDS011;11624;53.250;7.456;2023-04-25T08:51:10;12.23;;;2.60;;
22916;SDS011;11624;53.250;7.456;2023-04-25T08:53:49;11.73;;;2.70;;
22916;SDS011;11624;53.250;7.456;2023-04-25T08:56:25;13.23;;;2.50;;
22916;SDS011;11624;53.250;7.456;2023-04-25T08:58:55;15.35;;;2.33;;
22916;SDS011;11624;53.250;7.456;2023-04-25T09:01:23;8.73;;;2.33;;
22916;SDS011;11624;53.250;7.456;2023-04-25T09:03:53;11.43;;;2.55;;
22916;SDS011;11624;53.250;7.456;2023-04-25T09:06:21;8.13;;;2.20;;
22916;SDS011;11624;53.250;7.456;2023-04-25T09:08:51;16.50;;;2.53;;
22916;SDS011;11624;53.250;7.456;2023-04-25T09:11:19;11.80;;;2.70;;
22916;SDS011;11624;53.250;7.456;2023-04-25T09:13:52;12.05;;;2.33;;
22916;SDS011;11624;53.250;7.456;2023-04-25T09:16:58;13.38;;;2.70;;
22916;SDS011;11624;53.250;7.456;2023-04-25T09:19:48;8.73;;;2.38;;
22916;SDS011;11624;53.250;7.456;2023-04-25T09:22:24;15.50;;;2.70;;
22916;SDS011;11624;53.250;7.456;2023-04-25T09:24:52;13.48;;;2.70;;
22916;SDS011;11624;53.250;7.456;2023-04-25T09:27:24;14.75;;;2.67;;
22916;SDS011;11624;53.250;7.456;2023-04-25T09:30:17;11.65;;;2.50;;
22916;SDS011;11624;53.250;7.456;2023-04-25T09:33:07;12.32;;;2.20;;
22916;SDS011;11624;53.250;7.456;2023-04-25T09:35:37;12.88;;;2.30;;
22916;SDS011;11624;53.250;7.456;2023-04-25T09:38:10;17.48;;;2.40;;
22916;SDS011;11624;53.250;7.456;2023-04-25T09:41:11;15.57;;;2.85;;
22916;SDS011;11624;53.250;7.456;2023-04-25T09:43:44;16.40;;;3.20;;
22916;SDS011;11624;53.250;7.456;2023-04-25T09:46:15;9.80;;;2.45;;
22916;SDS011;11624;53.250;7.456;2023-04-25T09:48:49;11.73;;;2.22;;
22916;SDS011;11624;53.250;7.456;2023-04-25T09:51:34;13.15;;;2.28;;
22916;SDS011;11624;53.250;7.456;2023-04-25T09:54:04;9.38;;;1.85;;
22916;SDS011;11624;53.250;7.456;2023-04-25T09:56:36;13.32;;;2.22;;
22916;SDS011;11624;53.250;7.456;2023-04-25T09:59:06;12.73;;;1.88;;
22916;SDS011;11624;53.250;7.456;2023-04-25T10:01:38;13.68;;;1.95;;
22916;SDS011;11624;53.250;7.456;2023-04-25T10:04:19;9.93;;;1.77;;
22916;SDS011;11624;53.250;7.456;2023-04-25T10:07:03;8.13;;;1.60;;
22916;SDS011;11624;53.250;7.456;2023-04-25T10:09:36;10.38;;;1.65;;
22916;SDS011;11624;53.250;7.456;2023-04-25T10:12:06;9.18;;;1.75;;
22916;SDS011;11624;53.250;7.456;2023-04-25T10:14:34;26.65;;;2.40;;
22916;SDS011;11624;53.250;7.456;2023-04-25T10:17:04;15.05;;;1.70;;
22916;SDS011;11624;53.250;7.456;2023-04-25T10:19:32;7.57;;;1.55;;
22916;SDS011;11624;53.250;7.456;2023-04-25T10:22:03;13.93;;;2.25;;
22916;SDS011;11624;53.250;7.456;2023-04-25T10:24:34;11.00;;;1.98;;
22916;SDS011;11624;53.250;7.456;2023-04-25T10:27:03;11.50;;;1.77;;
22916;SDS011;11624;53.250;7.456;2023-04-25T10:29:32;13.98;;;1.77;;
22916;SDS011;11624;53.250;7.456;2023-04-25T10:32:00;9.38;;;1.90;;
22916;SDS011;11624;53.250;7.456;2023-04-25T10:34:39;12.00;;;1.70;;
22916;SDS011;11624;53.250;7.456;2023-04-25T10:37:09;10.57;;;1.45;;
22916;SDS011;11624;53.250;7.456;2023-04-25T10:39:38;29.15;;;2.45;;
22916;SDS011;11624;53.250;7.456;2023-04-25T10:42:08;11.90;;;2.13;;
22916;SDS011;11624;53.250;7.456;2023-04-25T10:44:37;14.32;;;2.03;;
22916;SDS011;11624;53.250;7.456;2023-04-25T10:47:06;9.40;;;1.40;;
22916;SDS011;11624;53.250;7.456;2023-04-25T10:49:36;8.55;;;1.92;;
22916;SDS011;11624;53.250;7.456;2023-04-25T10:52:17;9.95;;;2.40;;
22916;SDS011;11624;53.250;7.456;2023-04-25T10:54:52;11.63;;;2.90;;
22916;SDS011;11624;53.250;7.456;2023-04-25T11:00:13;13.95;;;2.40;;
22916;SDS011;11624;53.250;7.456;2023-04-25T11:02:46;12.70;;;2.60;;
22916;SDS011;11624;53.250;7.456;2023-04-25T11:05:18;9.70;;;2.22;;
22916;SDS011;11624;53.250;7.456;2023-04-25T11:07:51;10.70;;;2.72;;
22916;SDS011;11624;53.250;7.456;2023-04-25T11:10:33;13.00;;;2.40;;
22916;SDS011;11624;53.250;7.456;2023-04-25T11:13:02;11.45;;;2.00;;
22916;SDS011;11624;53.250;7.456;2023-04-25T11:15:31;10.75;;;2.00;;
22916;SDS011;11624;53.250;7.456;2023-04-25T11:17:59;13.13;;;2.58;;
22916;SDS011;11624;53.250;7.456;2023-04-25T11:20:28;8.73;;;2.20;;
22916;SDS011;11624;53.250;7.456;2023-04-25T11:22:58;11.98;;;4.07;;
22916;SDS011;11624;53.250;7.456;2023-04-25T11:25:27;7.85;;;2.28;;
22916;SDS011;11624;53.250;7.456;2023-04-25T11:27:56;9.05;;;2.30;;
22916;SDS011;11624;53.250;7.456;2023-04-25T11:30:27;12.05;;;2.35;;
22916;SDS011;11624;53.250;7.456;2023-04-25T11:32:57;12.90;;;2.42;;
22916;SDS011;11624;53.250;7.456;2023-04-25T11:35:25;10.32;;;2.38;;
22916;SDS011;11624;53.250;7.456;2023-04-25T11:37:53;11.73;;;2.28;;
22916;SDS011;11624;53.250;7.456;2023-04-25T11:40:23;8.98;;;1.95;;
22916;SDS011;11624;53.250;7.456;2023-04-25T11:42:51;12.43;;;2.30;;
22916;SDS011;11624;53.250;7.456;2023-04-25T11:45:20;10.07;;;2.60;;
22916;SDS011;11624;53.250;7.456;2023-04-25T11:47:50;16.90;;;2.67;;
22916;SDS011;11624;53.250;7.456;2023-04-25T11:50:19;14.80;;;2.70;;
22916;SDS011;11624;53.250;7.456;2023-04-25T11:52:47;12.07;;;2.60;;
22916;SDS011;11624;53.250;7.456;2023-04-25T11:55:16;14.30;;;2.75;;
22916;SDS011;11624;53.250;7.456;2023-04-25T11:57:48;10.75;;;2.25;;
22916;SDS011;11624;53.250;7.456;2023-04-25T12:00:17;15.05;;;2.70;;
22916;SDS011;11624;53.250;7.456;2023-04-25T12:02:47;14.50;;;2.15;;
22916;SDS011;11624;53.250;7.456;2023-04-25T12:05:19;6.07;;;2.13;;
22916;SDS011;11624;53.250;7.456;2023-04-25T12:07:53;9.02;;;1.98;;
22916;SDS011;11624;53.250;7.456;2023-04-25T12:10:22;7.88;;;2.03;;
22916;SDS011;11624;53.250;7.456;2023-04-25T12:12:53;8.75;;;2.28;;
22916;SDS011;11624;53.250;7.456;2023-04-25T12:15:23;9.48;;;2.17;;
22916;SDS011;11624;53.250;7.456;2023-04-25T12:17:53;8.93;;;2.17;;
22916;SDS011;11624;53.250;7.456;2023-04-25T12:20:23;11.52;;;2.33;;
22916;SDS011;11624;53.250;7.456;2023-04-25T12:22:52;8.05;;;1.88;;
22916;SDS011;11624;53.250;7.456;2023-04-25T12:25:34;10.15;;;2.00;;
22916;SDS011;11624;53.250;7.456;2023-04-25T12:28:12;13.70;;;2.20;;
22916;SDS011;11624;53.250;7.456;2023-04-25T12:30:52;9.15;;;2.15;;
22916;SDS011;11624;53.250;7.456;2023-04-25T12:33:21;8.52;;;1.90;;
22916;SDS011;11624;53.250;7.456;2023-04-25T12:35:49;10.93;;;2.60;;
22916;SDS011;11624;53.250;7.456;2023-04-25T12:38:21;9.27;;;2.15;;
22916;SDS011;11624;53.250;7.456;2023-04-25T12:40:50;9.05;;;1.95;;
22916;SDS011;11624;53.250;7.456;2023-04-25T12:43:20;10.48;;;2.10;;
22916;SDS011;11624;53.250;7.456;2023-04-25T12:45:48;9.57;;;2.50;;
22916;SDS011;11624;53.250;7.456;2023-04-25T12:48:17;7.03;;;2.20;;
22916;SDS011;11624;53.250;7.456;2023-04-25T12:50:46;4.90;;;1.65;;
22916;SDS011;11624;53.250;7.456;2023-04-25T12:53:16;8.27;;;2.15;;
22916;SDS011;11624;53.250;7.456;2023-04-25T12:55:45;10.30;;;1.98;;
22916;SDS011;11624;53.250;7.456;2023-04-25T12:58:13;8.13;;;1.92;;
22916;SDS011;11624;53.250;7.456;2023-04-25T13:00:44;8.07;;;1.92;;
22916;SDS011;11624;53.250;7.456;2023-04-25T13:03:12;12.77;;;2.25;;
22916;SDS011;11624;53.250;7.456;2023-04-25T13:05:41;9.75;;;2.30;;
22916;SDS011;11624;53.250;7.456;2023-04-25T13:08:09;9.90;;;2.33;;
22916;SDS011;11624;53.250;7.456;2023-04-25T13:10:38;13.52;;;2.97;;
22916;SDS011;11624;53.250;7.456;2023-04-25T13:13:08;9.57;;;2.60;;
22916;SDS011;11624;53.250;7.456;2023-04-25T13:15:36;9.30;;;2.20;;
22916;SDS011;11624;53.250;7.456;2023-04-25T13:18:06;10.23;;;2.13;;
22916;SDS011;11624;53.250;7.456;2023-04-25T13:20:34;14.55;;;2.20;;
22916;SDS011;11624;53.250;7.456;2023-04-25T13:23:02;11.50;;;2.30;;
22916;SDS011;11624;53.250;7.456;2023-04-25T13:25:30;12.35;;;2.85;;
22916;SDS011;11624;53.250;7.456;2023-04-25T13:27:58;12.73;;;2.47;;
22916;SDS011;11624;53.250;7.456;2023-04-25T13:30:26;12.13;;;2.92;;
22916;SDS011;11624;53.250;7.456;2023-04-25T13:32:54;10.52;;;2.00;;
22916;SDS011;11624;53.250;7.456;2023-04-25T13:35:25;7.97;;;2.08;;
22916;SDS011;11624;53.250;7.456;2023-04-25T13:37:53;9.45;;;1.90;;
22916;SDS011;11624;53.250;7.456;2023-04-25T13:40:21;12.25;;;2.20;;
22916;SDS011;11624;53.250;7.456;2023-04-25T13:42:51;7.32;;;1.80;;
22916;SDS011;11624;53.250;7.456;2023-04-25T13:45:19;8.77;;;1.80;;
22916;SDS011;11624;53.250;7.456;2023-04-25T13:47:47;9.75;;;2.70;;
22916;SDS011;11624;53.250;7.456;2023-04-25T13:50:15;12.45;;;2.42;;
22916;SDS011;11624;53.250;7.456;2023-04-25T13:52:45;12.88;;;2.60;;
22916;SDS011;11624;53.250;7.456;2023-04-25T13:55:14;12.13;;;2.35;;
22916;SDS011;11624;53.250;7.456;2023-04-25T13:57:42;11.98;;;2.80;;
22916;SDS011;11624;53.250;7.456;2023-04-25T14:00:10;14.02;;;2.38;;
22916;SDS011;11624;53.250;7.456;2023-04-25T14:02:39;9.55;;;2.15;;
22916;SDS011;11624;53.250;7.456;2023-04-25T14:05:07;17.52;;;2.33;;
22916;SDS011;11624;53.250;7.456;2023-04-25T14:07:37;12.35;;;2.33;;
22916;SDS011;11624;53.250;7.456;2023-04-25T14:10:06;13.07;;;2.25;;
22916;SDS011;11624;53.250;7.456;2023-04-25T14:12:35;10.20;;;2.50;;
22916;SDS011;11624;53.250;7.456;2023-04-25T14:15:03;13.73;;;2.38;;
22916;SDS011;11624;53.250;7.456;2023-04-25T14:17:32;10.25;;;2.15;;
22916;SDS011;11624;53.250;7.456;2023-04-25T14:20:00;12.95;;;2.50;;
22916;SDS011;11624;53.250;7.456;2023-04-25T14:22:28;16.80;;;2.55;;
22916;SDS011;11624;53.250;7.456;2023-04-25T14:24:56;11.30;;;2.38;;
22916;SDS011;11624;53.250;7.456;2023-04-25T14:27:26;14.40;;;3.45;;
22916;SDS011;11624;53.250;7.456;2023-04-25T14:29:54;12.20;;;2.70;;
22916;SDS011;11624;53.250;7.456;2023-04-25T14:32:22;13.93;;;2.53;;
22916;SDS011;11624;53.250;7.456;2023-04-25T14:34:50;12.43;;;4.00;;
22916;SDS011;11624;53.250;7.456;2023-04-25T14:37:18;16.83;;;3.13;;
22916;SDS011;11624;53.250;7.456;2023-04-25T14:39:47;12.30;;;2.47;;
22916;SDS011;11624;53.250;7.456;2023-04-25T14:42:15;10.55;;;2.10;;
22916;SDS011;11624;53.250;7.456;2023-04-25T14:44:45;8.10;;;1.80;;
22916;SDS011;11624;53.250;7.456;2023-04-25T14:47:13;8.90;;;2.22;;
22916;SDS011;11624;53.250;7.456;2023-04-25T14:49:42;11.02;;;2.42;;
22916;SDS011;11624;53.250;7.456;2023-04-25T14:52:10;12.63;;;2.72;;
22916;SDS011;11624;53.250;7.456;2023-04-25T14:54:38;13.68;;;3.92;;
22916;SDS011;11624;53.250;7.456;2023-04-25T14:57:06;15.10;;;2.42;;
22916;SDS011;11624;53.250;7.456;2023-04-25T14:59:34;11.88;;;2.38;;
22916;SDS011;11624;53.250;7.456;2023-04-25T15:02:04;9.48;;;2.65;;
22916;SDS011;11624;53.250;7.456;2023-04-25T15:04:32;10.00;;;2.42;;
22916;SDS011;11624;53.250;7.456;2023-04-25T15:07:01;9.80;;;2.33;;
22916;SDS011;11624;53.250;7.456;2023-04-25T15:09:29;9.75;;;2.03;;
22916;SDS011;11624;53.250;7.456;2023-04-25T15:11:57;8.48;;;2.20;;
22916;SDS011;11624;53.250;7.456;2023-04-25T15:14:26;9.82;;;1.70;;
22916;SDS011;11624;53.250;7.456;2023-04-25T15:16:54;12.00;;;2.05;;
22916;SDS011;11624;53.250;7.456;2023-04-25T15:19:23;12.00;;;2.33;;
22916;SDS011;11624;53.250;7.456;2023-04-25T15:21:52;10.18;;;3.10;;
22916;SDS011;11624;53.250;7.456;2023-04-25T15:24:20;11.52;;;2.20;;
22916;SDS011;11624;53.250;7.456;2023-04-25T15:26:48;12.45;;;2.28;;
22916;SDS011;11624;53.250;7.456;2023-04-25T15:29:16;13.13;;;2.40;;
22916;SDS011;11624;53.250;7.456;2023-04-25T15:31:45;14.93;;;2.70;;